Time;durP1;ratioP1;P1;durP2;ratioP2;P2;SDS_P1;SDS_P2;PMS_P1;PMS_P2;Temp;Humidity;BMP_temperature;BMP_pressure;BME280_temperature;BME280_humidity;BME280_pressure;Samples;Min_cycle;Max_cycle;Signal;HPM_P1;HPM_P2
2023/01/10 00:00:11;;;;;;;6.38;4.50;;;;;;;;;;10395705;28;20041;-45
2023/01/10 00:05:11;;;;;;;11.30;5.10;;;;;;;;;;10401105;28;20039;-45
2023/01/10 00:10:12;;;;;;;8.95;4.72;;;;;;;;;;10397657;28;20026;-51
2023/01/10 00:15:13;;;;;;;7.15;4.70;;;;;;;;;;10406501;28;20036;-54
2023/01/10 00:20:14;;;;;;;9.85;4.95;;;;;;;;;;10398598;28;20420;-52
2023/01/10 00:25:15;;;;;;;7.70;4.95;;;;;;;;;;10406412;28;20038;-56
2023/01/10 00:30:16;;;;;;;7.88;4.57;;;;;;;;;;10404953;28;20420;-56
2023/01/10 00:35:16;;;;;;;9.52;4.70;;;;;;;;;;10403884;28;20107;-57
2023/01/10 00:40:17;;;;;;;6.80;4.75;;;;;;;;;;10396470;28;20038;-56
2023/01/10 00:45:18;;;;;;;7.47;4.82;;;;;;;;;;10404556;28;20105;-55
2023/01/10 00:50:19;;;;;;;7.47;4.40;;;;;;;;;;10396724;28;20100;-58
2023/01/10 00:55:19;;;;;;;6.55;4.57;;;;;;;;;;10401275;28;20099;-57
2023/01/10 01:00:20;;;;;;;9.50;5.07;;;;;;;;;;10398016;28;20073;-56
2023/01/10 01:05:21;;;;;;;9.00;4.90;;;;;;;;;;10404002;28;20034;-57
2023/01/10 01:10:27;;;;;;;5.68;4.28;;;;;;;;;;10393945;28;20574;-57
2023/01/10 01:15:28;;;;;;;5.85;4.35;;;;;;;;;;10400155;28;20046;-56
2023/01/10 01:20:29;;;;;;;6.40;4.47;;;;;;;;;;10406940;28;20048;-56
2023/01/10 01:25:30;;;;;;;6.10;4.63;;;;;;;;;;10409549;28;20481;-50
2023/01/10 01:30:31;;;;;;;5.07;4.20;;;;;;;;;;10419424;28;20026;-47
2023/01/10 01:35:32;;;;;;;9.95;4.80;;;;;;;;;;10405159;28;20049;-50
2023/01/10 01:40:32;;;;;;;7.38;4.65;;;;;;;;;;10410533;28;20038;-49
2023/01/10 01:45:38;;;;;;;6.95;4.70;;;;;;;;;;10382479;28;20030;-53
2023/01/10 01:50:54;;;;;;;6.15;4.70;;;;;;;;;;10399738;28;20046;-49
2023/01/10 01:56:00;;;;;;;6.90;4.80;;;;;;;;;;10408658;28;20025;-54
2023/01/10 02:01:01;;;;;;;8.70;4.63;;;;;;;;;;10399944;28;20033;-50
2023/01/10 02:06:02;;;;;;;6.47;4.43;;;;;;;;;;10392659;28;20052;-51
2023/01/10 02:11:09;;;;;;;9.85;4.88;;;;;;;;;;10403201;28;20091;-57
2023/01/10 02:16:10;;;;;;;5.78;4.57;;;;;;;;;;10403388;28;20489;-52
2023/01/10 02:21:21;;;;;;;6.72;4.20;;;;;;;;;;10407619;28;20069;-59
2023/01/10 02:27:05;;;;;;;8.25;4.70;;;;;;;;;;10406257;28;20029;-58
2023/01/10 02:32:33;;;;;;;6.15;4.38;;;;;;;;;;10396626;28;20391;-57
2023/01/10 02:37:52;;;;;;;5.57;4.30;;;;;;;;;;10399417;28;20032;-56
2023/01/10 02:43:15;;;;;;;5.50;4.65;;;;;;;;;;10400503;28;20044;-58
2023/01/10 02:48:16;;;;;;;6.68;4.78;;;;;;;;;;10408057;28;20100;-58
2023/01/10 02:53:34;;;;;;;9.73;5.15;;;;;;;;;;10382906;28;20088;-57
2023/01/10 02:59:11;;;;;;;6.63;4.50;;;;;;;;;;10399137;28;20026;-53
2023/01/10 03:04:48;;;;;;;6.68;4.95;;;;;;;;;;10405174;28;20036;-46
2023/01/10 03:10:14;;;;;;;5.90;4.50;;;;;;;;;;10401715;28;20064;-52
2023/01/10 03:15:18;;;;;;;8.38;4.60;;;;;;;;;;10403967;28;20496;-56
2023/01/10 03:20:20;;;;;;;5.25;4.03;;;;;;;;;;10403846;28;20025;-58
2023/01/10 03:25:27;;;;;;;4.55;3.67;;;;;;;;;;10404041;28;20064;-55
2023/01/10 03:31:12;;;;;;;6.97;4.03;;;;;;;;;;10405728;28;20029;-58
2023/01/10 03:36:33;;;;;;;5.45;3.70;;;;;;;;;;10402973;28;20046;-50
2023/01/10 03:41:48;;;;;;;5.88;4.10;;;;;;;;;;10395398;28;20037;-50
2023/01/10 03:46:59;;;;;;;7.20;4.53;;;;;;;;;;10398490;28;20018;-54
2023/01/10 03:52:00;;;;;;;7.88;4.45;;;;;;;;;;10382739;28;20136;-50
2023/01/10 03:57:01;;;;;;;5.97;3.67;;;;;;;;;;10406119;28;20080;-47
2023/01/10 04:02:02;;;;;;;5.25;3.80;;;;;;;;;;10400514;28;20038;-47
2023/01/10 04:07:02;;;;;;;5.28;3.78;;;;;;;;;;10394069;28;20034;-51
2023/01/10 04:12:03;;;;;;;4.72;3.67;;;;;;;;;;10402051;28;20230;-52
2023/01/10 04:17:03;;;;;;;7.22;4.32;;;;;;;;;;10400836;28;20030;-52
2023/01/10 04:22:07;;;;;;;4.72;3.63;;;;;;;;;;10407143;28;20459;-46
2023/01/10 04:27:07;;;;;;;5.50;3.88;;;;;;;;;;10405145;28;20072;-54
2023/01/10 04:32:08;;;;;;;4.53;3.47;;;;;;;;;;10399576;28;20480;-46
2023/01/10 04:37:08;;;;;;;5.30;3.80;;;;;;;;;;10403969;28;20492;-47
2023/01/10 04:42:09;;;;;;;3.85;3.42;;;;;;;;;;10394904;28;20038;-57
2023/01/10 04:47:09;;;;;;;6.72;4.10;;;;;;;;;;10401188;28;20033;-58
2023/01/10 04:52:10;;;;;;;4.95;3.53;;;;;;;;;;10398339;28;20064;-45
2023/01/10 04:57:11;;;;;;;7.57;4.10;;;;;;;;;;10407160;28;20084;-47
2023/01/10 05:02:11;;;;;;;3.65;3.33;;;;;;;;;;10414005;28;20021;-48
2023/01/10 05:07:12;;;;;;;7.10;3.60;;;;;;;;;;10398924;28;20041;-45
2023/01/10 05:12:12;;;;;;;5.32;3.30;;;;;;;;;;10413565;28;20045;-47
2023/01/10 05:17:13;;;;;;;4.55;3.40;;;;;;;;;;10410239;28;20029;-46
2023/01/10 05:22:14;;;;;;;7.03;3.92;;;;;;;;;;10412706;28;20033;-45
2023/01/10 05:27:15;;;;;;;3.85;3.45;;;;;;;;;;10411213;28;20046;-46
2023/01/10 05:32:16;;;;;;;4.53;3.53;;;;;;;;;;10408884;28;20033;-59
2023/01/10 05:37:16;;;;;;;4.63;3.50;;;;;;;;;;10403626;28;20025;-60
2023/01/10 05:42:18;;;;;;;4.25;3.47;;;;;;;;;;10412536;28;20159;-55
2023/01/10 05:47:19;;;;;;;3.92;3.20;;;;;;;;;;10412931;28;20021;-50
2023/01/10 05:52:19;;;;;;;4.95;3.45;;;;;;;;;;10400022;28;20426;-55
2023/01/10 05:57:21;;;;;;;4.90;3.67;;;;;;;;;;10394878;28;20025;-53
2023/01/10 06:02:22;;;;;;;6.93;3.55;;;;;;;;;;10390648;28;20076;-53
2023/01/10 06:07:22;;;;;;;11.50;3.20;;;;;;;;;;10397970;28;20534;-50
2023/01/10 06:12:23;;;;;;;5.32;3.53;;;;;;;;;;10379618;28;20041;-56
2023/01/10 06:17:23;;;;;;;8.73;2.88;;;;;;;;;;10383158;28;20508;-62
2023/01/10 06:22:25;;;;;;;5.15;3.38;;;;;;;;;;10375534;28;20037;-60
2023/01/10 06:27:25;;;;;;;6.80;2.90;;;;;;;;;;10380366;28;20449;-52
2023/01/10 06:32:26;;;;;;;4.15;2.70;;;;;;;;;;10382659;28;20029;-56
2023/01/10 06:37:27;;;;;;;8.30;3.28;;;;;;;;;;10377152;28;20032;-58
2023/01/10 06:42:28;;;;;;;7.40;3.35;;;;;;;;;;10377297;28;20397;-59
2023/01/10 06:47:28;;;;;;;4.05;3.22;;;;;;;;;;10375524;28;20196;-56
2023/01/10 06:52:29;;;;;;;5.00;3.35;;;;;;;;;;10387560;28;20046;-57
2023/01/10 06:57:32;;;;;;;13.20;3.42;;;;;;;;;;10381835;28;20037;-55
2023/01/10 07:02:33;;;;;;;5.97;3.38;;;;;;;;;;10381024;28;20068;-51
2023/01/10 07:07:33;;;;;;;29.02;3.67;;;;;;;;;;10393365;28;20441;-54
2023/01/10 07:12:34;;;;;;;8.55;3.17;;;;;;;;;;10374034;28;20386;-52
2023/01/10 07:17:35;;;;;;;16.33;3.38;;;;;;;;;;10373294;28;20474;-51
2023/01/10 07:22:35;;;;;;;10.50;3.50;;;;;;;;;;10371969;28;20018;-54
2023/01/10 07:27:36;;;;;;;6.43;3.53;;;;;;;;;;10379974;28;20044;-54
2023/01/10 07:32:36;;;;;;;6.40;3.28;;;;;;;;;;10382072;28;20025;-55
2023/01/10 07:37:37;;;;;;;10.68;3.17;;;;;;;;;;10384820;28;20076;-52
2023/01/10 07:42:37;;;;;;;4.43;2.92;;;;;;;;;;10398438;28;20048;-51
2023/01/10 07:47:38;;;;;;;6.32;3.13;;;;;;;;;;10402805;28;20271;-53
2023/01/10 07:52:38;;;;;;;9.20;3.17;;;;;;;;;;10396286;28;20053;-55
2023/01/10 07:57:39;;;;;;;16.00;3.80;;;;;;;;;;10407435;28;20405;-57
2023/01/10 08:02:40;;;;;;;4.75;2.95;;;;;;;;;;10404939;28;20038;-53
2023/01/10 08:07:40;;;;;;;6.13;2.97;;;;;;;;;;10404094;28;20041;-50
2023/01/10 08:12:41;;;;;;;12.68;3.60;;;;;;;;;;10402640;28;20040;-57
2023/01/10 08:17:41;;;;;;;8.98;3.10;;;;;;;;;;10403624;28;20036;-56
2023/01/10 08:22:42;;;;;;;4.57;2.80;;;;;;;;;;10407391;28;20021;-59
2023/01/10 08:27:43;;;;;;;6.47;3.20;;;;;;;;;;10411306;28;20029;-47
2023/01/10 08:32:44;;;;;;;8.07;2.90;;;;;;;;;;10414763;28;20033;-60
2023/01/10 08:37:44;;;;;;;4.03;2.67;;;;;;;;;;10414674;28;20168;-47
2023/01/10 08:42:45;;;;;;;6.38;3.38;;;;;;;;;;10408687;28;20041;-60
2023/01/10 08:47:46;;;;;;;6.03;2.83;;;;;;;;;;10414026;28;20033;-53
2023/01/10 08:52:46;;;;;;;7.78;2.80;;;;;;;;;;10413825;28;20052;-54
2023/01/10 08:57:47;;;;;;;5.85;2.97;;;;;;;;;;10413310;28;20087;-53
2023/01/10 09:02:47;;;;;;;4.90;2.75;;;;;;;;;;10409167;28;20034;-54
2023/01/10 09:07:48;;;;;;;4.78;2.70;;;;;;;;;;10414013;28;20030;-54
2023/01/10 09:12:55;;;;;;;5.75;2.92;;;;;;;;;;10407399;28;20025;-52
2023/01/10 09:17:59;;;;;;;4.07;2.70;;;;;;;;;;10410450;28;20029;-55
2023/01/10 09:23:09;;;;;;;7.85;2.70;;;;;;;;;;10412523;28;20113;-55
2023/01/10 09:28:09;;;;;;;6.90;2.75;;;;;;;;;;10412713;28;20110;-51
2023/01/10 09:33:11;;;;;;;4.25;2.90;;;;;;;;;;10412728;28;20425;-51
2023/01/10 09:38:17;;;;;;;6.65;2.65;;;;;;;;;;10404897;28;20389;-56
2023/01/10 09:43:45;;;;;;;4.57;2.80;;;;;;;;;;10409380;28;20033;-56
2023/01/10 09:49:14;;;;;;;5.40;2.90;;;;;;;;;;10411005;28;20530;-60
2023/01/10 09:54:24;;;;;;;2.90;2.60;;;;;;;;;;10401904;28;20435;-52
2023/01/10 09:59:40;;;;;;;5.15;2.65;;;;;;;;;;10397650;28;20049;-48
2023/01/10 10:04:41;;;;;;;3.22;2.50;;;;;;;;;;10423906;28;20472;-52
2023/01/10 10:09:42;;;;;;;5.35;2.90;;;;;;;;;;10411577;28;20105;-49
2023/01/10 10:15:10;;;;;;;6.68;2.70;;;;;;;;;;10405572;28;20067;-47
2023/01/10 10:20:22;;;;;;;4.97;2.92;;;;;;;;;;10408009;28;20037;-49
2023/01/10 10:26:03;;;;;;;2.92;2.28;;;;;;;;;;10410620;28;20040;-49
2023/01/10 10:31:28;;;;;;;4.15;2.65;;;;;;;;;;10400653;28;20034;-48
2023/01/10 10:36:53;;;;;;;6.40;2.70;;;;;;;;;;10408611;28;20033;-47
2023/01/10 10:41:55;;;;;;;4.60;2.83;;;;;;;;;;10402500;28;20026;-45
2023/01/10 10:46:58;;;;;;;4.97;2.72;;;;;;;;;;10408334;28;20021;-48
2023/01/10 10:52:02;;;;;;;3.55;2.78;;;;;;;;;;10408975;28;20496;-47
2023/01/10 10:57:02;;;;;;;5.30;2.50;;;;;;;;;;10407949;28;20027;-46
2023/01/10 11:02:30;;;;;;;3.17;2.60;;;;;;;;;;10397886;28;20041;-57
2023/01/10 11:07:39;;;;;;;5.32;2.65;;;;;;;;;;10384718;28;20107;-59
2023/01/10 11:12:46;;;;;;;5.68;2.67;;;;;;;;;;10384091;28;20485;-50
2023/01/10 11:18:05;;;;;;;5.80;2.92;;;;;;;;;;10376405;28;20025;-51
2023/01/10 11:23:06;;;;;;;4.80;2.92;;;;;;;;;;10390014;28;20052;-52
2023/01/10 11:28:13;;;;;;;5.05;2.20;;;;;;;;;;10396669;28;20055;-46
2023/01/10 11:33:26;;;;;;;3.53;2.80;;;;;;;;;;10399494;28;20091;-55
2023/01/10 11:38:29;;;;;;;4.85;2.88;;;;;;;;;;10406145;28;20041;-52
2023/01/10 11:43:38;;;;;;;3.08;2.58;;;;;;;;;;10395735;28;20450;-58
2023/01/10 11:49:13;;;;;;;4.50;3.05;;;;;;;;;;10402027;28;20379;-53
2023/01/10 11:54:32;;;;;;;3.50;2.70;;;;;;;;;;10393831;28;20056;-59
2023/01/10 11:59:34;;;;;;;2.90;2.58;;;;;;;;;;10386799;28;20163;-57
2023/01/10 12:04:41;;;;;;;2.70;2.30;;;;;;;;;;10380950;28;20495;-53
2023/01/10 12:10:01;;;;;;;3.70;2.90;;;;;;;;;;10378237;28;20057;-51
2023/01/10 12:15:40;;;;;;;4.38;3.10;;;;;;;;;;10397274;28;20057;-51
2023/01/10 12:20:48;;;;;;;3.47;2.97;;;;;;;;;;10359539;28;20044;-51
2023/01/10 12:25:50;;;;;;;2.58;2.35;;;;;;;;;;10353934;28;20038;-48
2023/01/10 12:30:54;;;;;;;4.07;2.85;;;;;;;;;;10364204;28;20034;-49
2023/01/10 12:36:04;;;;;;;4.22;2.80;;;;;;;;;;10363584;28;20045;-46
2023/01/10 12:41:10;;;;;;;4.13;2.47;;;;;;;;;;10350865;28;20084;-47
2023/01/10 12:46:27;;;;;;;3.10;2.30;;;;;;;;;;10355373;28;20049;-57
2023/01/10 12:51:29;;;;;;;2.85;2.33;;;;;;;;;;10377713;28;20103;-55
2023/01/10 12:56:31;;;;;;;5.50;2.47;;;;;;;;;;10388517;28;20216;-53
2023/01/10 13:01:39;;;;;;;4.55;2.40;;;;;;;;;;10397699;28;20021;-56
2023/01/10 13:06:42;;;;;;;3.08;2.55;;;;;;;;;;10394925;28;20034;-57
2023/01/10 13:12:16;;;;;;;2.88;2.40;;;;;;;;;;10394908;28;20029;-59
2023/01/10 13:17:38;;;;;;;2.92;2.20;;;;;;;;;;10392327;28;20034;-56
2023/01/10 13:22:38;;;;;;;4.57;2.50;;;;;;;;;;10393960;28;20102;-60
2023/01/10 13:27:39;;;;;;;4.35;2.40;;;;;;;;;;10387941;28;20528;-53
2023/01/10 13:32:39;;;;;;;3.92;2.70;;;;;;;;;;10399311;28;20092;-55
2023/01/10 13:37:43;;;;;;;2.75;2.40;;;;;;;;;;10393767;28;20034;-58
2023/01/10 13:48:03;;;;;;;3.50;2.20;;;;;;;;;;10398440;28;20030;-59
2023/01/10 13:53:05;;;;;;;3.80;2.45;;;;;;;;;;10398362;28;20089;-60
2023/01/10 13:58:15;;;;;;;3.55;2.50;;;;;;;;;;10401894;28;20026;-54
2023/01/10 14:03:52;;;;;;;3.22;2.50;;;;;;;;;;10411037;28;20109;-56
2023/01/10 14:09:05;;;;;;;2.40;2.20;;;;;;;;;;10374910;28;20044;-53
2023/01/10 14:14:23;;;;;;;3.10;2.10;;;;;;;;;;10391417;28;20029;-57
2023/01/10 14:19:31;;;;;;;5.70;2.47;;;;;;;;;;10397949;28;20033;-58
2023/01/10 14:24:42;;;;;;;3.78;2.60;;;;;;;;;;10390862;28;20104;-50
2023/01/10 14:29:59;;;;;;;4.03;2.03;;;;;;;;;;10399488;28;20034;-52
2023/01/10 14:35:05;;;;;;;3.45;2.45;;;;;;;;;;10394281;28;20029;-60
2023/01/10 14:40:28;;;;;;;3.90;2.47;;;;;;;;;;10396097;28;20036;-59
2023/01/10 14:45:56;;;;;;;2.92;2.15;;;;;;;;;;10390593;28;20036;-46
2023/01/10 14:51:24;;;;;;;3.45;2.40;;;;;;;;;;10382561;28;20477;-60
2023/01/10 14:56:44;;;;;;;3.15;2.35;;;;;;;;;;10386505;28;20034;-57
2023/01/10 15:01:49;;;;;;;6.53;2.63;;;;;;;;;;10400048;28;20030;-47
2023/01/10 15:06:54;;;;;;;4.45;2.55;;;;;;;;;;10405967;28;20040;-59
2023/01/10 15:12:00;;;;;;;2.40;2.20;;;;;;;;;;10398049;28;20025;-60
2023/01/10 15:17:05;;;;;;;2.40;2.20;;;;;;;;;;10387872;28;20101;-60
2023/01/10 15:22:17;;;;;;;4.07;2.28;;;;;;;;;;10390790;28;20388;-60
2023/01/10 15:27:17;;;;;;;2.80;2.30;;;;;;;;;;10395777;28;20026;-46
2023/01/10 15:32:38;;;;;;;3.20;2.40;;;;;;;;;;10399902;28;20272;-57
2023/01/10 15:37:58;;;;;;;2.92;2.28;;;;;;;;;;10399767;28;20045;-53
2023/01/10 15:43:22;;;;;;;2.83;2.25;;;;;;;;;;10389554;28;20095;-46
2023/01/10 15:48:33;;;;;;;2.95;2.10;;;;;;;;;;10396278;28;20637;-45
2023/01/10 15:54:02;;;;;;;2.70;2.03;;;;;;;;;;10378814;28;20359;-56
2023/01/10 15:59:20;;;;;;;2.30;2.05;;;;;;;;;;10396015;28;20072;-52
2023/01/10 16:04:21;;;;;;;2.70;2.10;;;;;;;;;;10390151;28;20053;-53
2023/01/10 16:09:22;;;;;;;2.42;2.17;;;;;;;;;;10400347;28;20049;-60
2023/01/10 16:14:22;;;;;;;2.40;1.98;;;;;;;;;;10392966;28;20033;-60
2023/01/10 16:19:23;;;;;;;2.75;2.10;;;;;;;;;;10395408;28;20021;-60
2023/01/10 16:24:30;;;;;;;2.30;2.10;;;;;;;;;;10399806;28;20033;-60
2023/01/10 16:29:32;;;;;;;2.42;2.10;;;;;;;;;;10379135;28;20025;-55
2023/01/10 16:34:33;;;;;;;2.53;1.92;;;;;;;;;;10392521;28;20030;-59
2023/01/10 16:39:33;;;;;;;2.95;2.28;;;;;;;;;;10382660;28;20508;-57
2023/01/10 16:44:34;;;;;;;2.25;2.00;;;;;;;;;;10391020;28;20038;-53
2023/01/10 16:49:35;;;;;;;1.85;1.65;;;;;;;;;;10401256;28;20028;-54
2023/01/10 16:54:37;;;;;;;2.25;2.03;;;;;;;;;;10388463;28;20053;-52
2023/01/10 16:59:38;;;;;;;2.03;1.83;;;;;;;;;;10382863;28;20042;-52
2023/01/10 17:04:39;;;;;;;2.70;1.98;;;;;;;;;;10394161;28;20025;-51
2023/01/10 17:09:39;;;;;;;1.98;1.85;;;;;;;;;;10387577;28;20037;-58
2023/01/10 17:14:40;;;;;;;5.65;2.30;;;;;;;;;;10396261;28;20542;-59
2023/01/10 17:19:41;;;;;;;2.47;1.80;;;;;;;;;;10408028;28;20041;-50
2023/01/10 17:24:42;;;;;;;3.13;2.50;;;;;;;;;;10404553;28;20036;-48
2023/01/10 17:29:42;;;;;;;29.58;2.53;;;;;;;;;;10397265;28;20037;-50
2023/01/10 17:34:43;;;;;;;2.72;2.00;;;;;;;;;;10392382;28;20056;-50
2023/01/10 17:39:43;;;;;;;4.72;2.55;;;;;;;;;;10386777;28;20033;-56
2023/01/10 17:44:44;;;;;;;6.88;2.15;;;;;;;;;;10389309;28;20033;-56
2023/01/10 17:49:45;;;;;;;4.18;2.42;;;;;;;;;;10398506;28;20029;-59
2023/01/10 17:54:45;;;;;;;4.72;2.20;;;;;;;;;;10403339;28;20042;-57
2023/01/10 17:59:46;;;;;;;2.95;2.10;;;;;;;;;;10410306;28;20034;-54
2023/01/10 18:04:46;;;;;;;4.43;2.85;;;;;;;;;;10398993;28;20255;-46
2023/01/10 18:09:47;;;;;;;2.47;2.08;;;;;;;;;;10410326;28;20416;-45
2023/01/10 18:14:49;;;;;;;5.78;2.30;;;;;;;;;;10393041;28;20417;-52
2023/01/10 18:19:50;;;;;;;5.35;2.50;;;;;;;;;;10385354;28;20029;-59
2023/01/10 18:24:55;;;;;;;5.68;2.30;;;;;;;;;;10400082;28;20041;-57
2023/01/10 18:29:56;;;;;;;4.72;2.65;;;;;;;;;;10394653;28;20025;-60
2023/01/10 18:34:57;;;;;;;4.70;2.78;;;;;;;;;;10402080;28;20026;-57
2023/01/10 18:39:58;;;;;;;7.10;2.42;;;;;;;;;;10405756;28;20477;-59
2023/01/10 18:44:58;;;;;;;3.67;2.20;;;;;;;;;;10393531;28;20017;-56
2023/01/10 18:49:59;;;;;;;7.57;2.55;;;;;;;;;;10408646;28;20022;-53
2023/01/10 18:55:00;;;;;;;4.53;2.70;;;;;;;;;;10395896;28;20052;-49
2023/01/10 19:00:01;;;;;;;5.28;2.45;;;;;;;;;;10397258;28;20652;-53
2023/01/10 19:05:03;;;;;;;2.67;2.35;;;;;;;;;;10391248;28;20021;-53
2023/01/10 19:10:04;;;;;;;4.57;2.50;;;;;;;;;;10393212;28;20497;-55
2023/01/10 19:15:08;;;;;;;10.82;2.47;;;;;;;;;;10397177;28;20021;-51
2023/01/10 19:20:09;;;;;;;4.75;2.90;;;;;;;;;;10403237;28;20604;-55
2023/01/10 19:25:10;;;;;;;2.75;2.30;;;;;;;;;;10405821;28;20381;-51
2023/01/10 19:30:10;;;;;;;4.28;2.70;;;;;;;;;;10395730;28;20025;-50
2023/01/10 19:35:11;;;;;;;4.40;2.83;;;;;;;;;;10407203;28;20044;-55
2023/01/10 19:40:13;;;;;;;7.38;2.85;;;;;;;;;;10372963;28;20037;-53
2023/01/10 19:45:13;;;;;;;4.93;2.83;;;;;;;;;;10394282;28;20075;-53
2023/01/10 19:50:14;;;;;;;5.13;3.00;;;;;;;;;;10406556;28;20056;-50
2023/01/10 19:55:15;;;;;;;7.20;3.20;;;;;;;;;;10384738;28;20021;-52
2023/01/10 20:00:16;;;;;;;4.13;2.60;;;;;;;;;;10403859;28;20122;-45
2023/01/10 20:05:17;;;;;;;3.30;2.83;;;;;;;;;;10383670;28;20084;-57
2023/01/10 20:10:17;;;;;;;4.93;2.78;;;;;;;;;;10386636;28;20032;-59
2023/01/10 20:15:18;;;;;;;5.93;2.75;;;;;;;;;;10388430;28;20021;-57
2023/01/10 20:20:19;;;;;;;3.33;2.75;;;;;;;;;;10384713;28;20042;-55
2023/01/10 20:25:20;;;;;;;6.43;3.55;;;;;;;;;;10401096;28;20474;-54
2023/01/10 20:30:20;;;;;;;4.45;2.72;;;;;;;;;;10394513;28;20042;-57
2023/01/10 20:35:21;;;;;;;5.57;2.65;;;;;;;;;;10400142;28;20039;-59
2023/01/10 20:40:23;;;;;;;5.63;2.90;;;;;;;;;;10398952;28;20091;-57
2023/01/10 20:45:24;;;;;;;12.43;3.80;;;;;;;;;;10388034;28;20430;-59
2023/01/10 20:50:24;;;;;;;16.02;4.03;;;;;;;;;;10397720;28;20050;-59
2023/01/10 20:55:25;;;;;;;6.82;3.20;;;;;;;;;;10394297;28;20040;-55
2023/01/10 21:00:26;;;;;;;8.88;3.72;;;;;;;;;;10389769;28;20080;-61
2023/01/10 21:05:26;;;;;;;7.28;3.50;;;;;;;;;;10397202;28;20029;-60
2023/01/10 21:10:27;;;;;;;6.18;3.38;;;;;;;;;;10404639;28;20894;-56
2023/01/10 21:15:28;;;;;;;10.13;3.22;;;;;;;;;;10390408;28;20038;-61
2023/01/10 21:20:29;;;;;;;6.03;2.92;;;;;;;;;;10389925;28;20474;-60
2023/01/10 21:25:29;;;;;;;7.85;3.60;;;;;;;;;;10395109;28;20472;-54
2023/01/10 21:30:30;;;;;;;7.50;3.53;;;;;;;;;;10399517;28;20052;-61
2023/01/10 21:35:31;;;;;;;9.70;3.40;;;;;;;;;;10408945;28;20042;-60
2023/01/10 21:40:33;;;;;;;7.95;3.22;;;;;;;;;;10379779;28;20061;-60
2023/01/10 21:45:34;;;;;;;7.80;2.88;;;;;;;;;;10397259;28;20026;-60
2023/01/10 21:50:35;;;;;;;12.27;3.70;;;;;;;;;;10396557;28;20041;-55
2023/01/10 21:55:35;;;;;;;18.20;5.10;;;;;;;;;;10384877;28;20580;-50
2023/01/10 22:00:36;;;;;;;14.40;4.50;;;;;;;;;;10392035;28;20029;-60
2023/01/10 22:05:37;;;;;;;16.17;4.00;;;;;;;;;;10392603;28;20027;-60
2023/01/10 22:10:37;;;;;;;9.45;3.63;;;;;;;;;;10402431;28;20488;-61
2023/01/10 22:15:39;;;;;;;11.35;3.60;;;;;;;;;;10396664;28;20040;-61
2023/01/10 22:20:43;;;;;;;8.38;3.65;;;;;;;;;;10403260;28;20025;-55
2023/01/10 22:25:44;;;;;;;13.20;4.60;;;;;;;;;;10390878;28;20038;-52
2023/01/10 22:30:44;;;;;;;8.52;3.65;;;;;;;;;;10389489;28;20029;-56
2023/01/10 22:35:45;;;;;;;13.10;4.13;;;;;;;;;;10399402;28;20037;-57
2023/01/10 22:40:46;;;;;;;6.75;3.72;;;;;;;;;;10401766;28;20021;-52
2023/01/10 22:45:46;;;;;;;7.53;3.35;;;;;;;;;;10391252;28;20033;-58
2023/01/10 22:50:48;;;;;;;8.88;3.45;;;;;;;;;;10397621;28;20034;-50
2023/01/10 22:55:48;;;;;;;9.25;3.72;;;;;;;;;;10384693;28;20029;-56
2023/01/10 23:00:49;;;;;;;6.75;3.40;;;;;;;;;;10385368;28;20026;-55
2023/01/10 23:05:55;;;;;;;11.50;4.38;;;;;;;;;;10391981;28;20036;-51
2023/01/10 23:10:56;;;;;;;16.55;4.50;;;;;;;;;;10387596;28;20038;-46
2023/01/10 23:16:02;;;;;;;13.70;4.85;;;;;;;;;;10391672;28;20032;-56
2023/01/10 23:21:04;;;;;;;9.73;4.00;;;;;;;;;;10398610;28;20048;-55
2023/01/10 23:26:07;;;;;;;11.23;3.88;;;;;;;;;;10393783;28;20389;-53
2023/01/10 23:31:08;;;;;;;7.60;3.53;;;;;;;;;;10383616;28;20384;-55
2023/01/10 23:36:10;;;;;;;12.23;3.95;;;;;;;;;;10387657;28;20026;-58
2023/01/10 23:41:10;;;;;;;11.30;4.35;;;;;;;;;;10392128;28;20500;-54
2023/01/10 23:46:11;;;;;;;14.50;4.43;;;;;;;;;;10381908;28;20037;-51
2023/01/10 23:51:14;;;;;;;9.23;4.38;;;;;;;;;;10381825;28;20068;-49
2023/01/10 23:56:15;;;;;;;6.85;3.67;;;;;;;;;;10371723;28;20052;-48
